Time;durP1;ratioP1;P1;durP2;ratioP2;P2;SDS_P1;SDS_P2;PMS_P1;PMS_P2;Temp;Humidity;BMP_temperature;BMP_pressure;BME280_temperature;BME280_humidity;BME280_pressure;Samples;Min_cycle;Max_cycle;Signal;HPM_P1;HPM_P2
2022/06/07 00:02:13;;;;;;;5.80;5.20;;;;;;;16.66;70.55;100505.88;1653176;83;21015;-70
2022/06/07 00:04:40;;;;;;;7.12;6.40;;;;;;;16.64;71.00;100509.32;1675589;85;21533;-70
2022/06/07 00:07:09;;;;;;;5.65;5.22;;;;;;;16.62;70.77;100506.03;1663673;85;21137;-70
2022/06/07 00:09:36;;;;;;;7.00;6.40;;;;;;;16.58;71.25;100502.69;1690280;83;21058;-70
2022/06/07 00:12:04;;;;;;;7.22;6.53;;;;;;;16.54;71.23;100505.81;1685232;83;21074;-70
2022/06/07 00:14:34;;;;;;;7.62;6.90;;;;;;;16.50;71.68;100503.27;1677308;84;21149;-70
2022/06/07 00:17:05;;;;;;;8.03;7.03;;;;;;;16.45;71.40;100504.45;1679990;84;21111;-71
2022/06/07 00:19:34;;;;;;;10.68;7.55;;;;;;;16.43;72.35;100500.36;1674463;84;21099;-69
2022/06/07 00:22:02;;;;;;;7.50;7.00;;;;;;;16.42;72.64;100504.89;1675416;85;21104;-69
2022/06/07 00:24:29;;;;;;;7.62;6.90;;;;;;;16.40;72.37;100496.22;1671174;85;21147;-69
2022/06/07 00:26:56;;;;;;;8.38;7.65;;;;;;;16.38;72.93;100499.66;1675809;84;21115;-69
2022/06/07 00:29:24;;;;;;;9.00;7.45;;;;;;;16.35;72.43;100502.28;1675575;85;21133;-70
2022/06/07 00:31:53;;;;;;;9.90;8.58;;;;;;;16.31;72.74;100501.09;1668670;85;21061;-70
2022/06/07 00:34:20;;;;;;;8.88;7.78;;;;;;;16.29;72.64;100500.99;1663479;84;21076;-69
2022/06/07 00:36:48;;;;;;;10.68;9.68;;;;;;;16.27;72.99;100497.70;1669068;84;21067;-70
2022/06/07 00:39:14;;;;;;;12.50;9.90;;;;;;;16.25;72.67;100501.14;1640878;86;21174;-71
2022/06/07 00:41:41;;;;;;;12.82;9.18;;;;;;;16.22;73.07;100504.27;1667942;84;22407;-70
2022/06/07 00:44:22;;;;;;;9.15;8.38;;;;;;;16.19;73.16;100501.50;1663203;84;21079;-72
2022/06/07 00:47:02;;;;;;;10.72;9.73;;;;;;;16.20;73.39;100505.01;1662539;84;21054;-68
2022/06/07 00:49:34;;;;;;;8.95;8.15;;;;;;;16.15;73.38;100498.97;1658552;84;21578;-70
2022/06/07 00:52:01;;;;;;;12.40;9.10;;;;;;;16.12;73.61;100502.92;1653760;85;21125;-70
2022/06/07 00:54:32;;;;;;;9.35;8.45;;;;;;;16.10;73.87;100502.30;1636427;86;21028;-69
2022/06/07 00:57:03;;;;;;;9.55;8.65;;;;;;;16.07;73.70;100505.45;1659685;84;21038;-70
2022/06/07 00:59:31;;;;;;;8.83;8.05;;;;;;;16.06;73.54;100499.75;1665776;84;21156;-70
2022/06/07 01:01:58;;;;;;;8.28;7.53;;;;;;;16.04;73.95;100501.03;1673320;84;21098;-69
2022/06/07 01:04:27;;;;;;;8.78;7.97;;;;;;;16.00;74.37;100503.86;1663980;84;21719;-70
2022/06/07 01:12:30;;;;;;;13.80;7.75;;;;;;;15.78;74.38;100508.78;1652106;84;21204;-69
2022/06/07 01:14:57;;;;;;;8.88;8.05;;;;;;;15.72;74.89;100504.55;1649983;86;21084;-69
2022/06/07 01:17:25;;;;;;;7.45;6.92;;;;;;;15.72;75.07;100501.86;1674675;84;21066;-69
2022/06/07 01:19:52;;;;;;;7.72;6.92;;;;;;;15.72;74.83;100506.42;1661987;84;21158;-70
2022/06/07 01:22:19;;;;;;;7.80;7.12;;;;;;;15.62;74.79;100502.06;1658138;84;21169;-69
2022/06/07 01:24:46;;;;;;;7.58;6.92;;;;;;;15.55;75.47;100505.59;1684477;84;21050;-69
2022/06/07 01:27:13;;;;;;;10.50;7.35;;;;;;;15.53;75.91;100502.83;1680922;85;21022;-69
2022/06/07 01:29:42;;;;;;;11.22;7.75;;;;;;;15.54;75.98;100505.31;1682708;84;21082;-68
2022/06/07 01:32:11;;;;;;;8.48;7.78;;;;;;;15.53;76.03;100500.96;1634951;84;20993;-68
2022/06/07 01:34:43;;;;;;;7.35;6.72;;;;;;;15.58;76.24;100501.67;1658727;85;21034;-69
2022/06/07 01:37:13;;;;;;;8.15;6.62;;;;;;;15.63;76.30;100502.34;1675670;84;21021;-69
2022/06/07 04:35:18;;;;;;;3.27;1.65;;;;;;;30.34;30.99;100469.42;1730547;79;22838;-79
2022/06/07 04:37:49;;;;;;;1.98;1.80;;;;;;;30.44;30.21;100471.06;1696234;83;21052;-86
2022/06/07 04:40:17;;;;;;;1.70;1.30;;;;;;;30.51;29.81;100474.16;1679459;83;21523;-82
2022/06/07 04:42:46;;;;;;;3.77;1.77;;;;;;;30.54;30.33;100467.23;1701440;83;21005;-74
2022/06/07 04:45:15;;;;;;;2.52;1.30;;;;;;;30.47;29.59;100468.49;1707399;82;21096;-80
2022/06/07 04:47:49;;;;;;;6.30;1.67;;;;;;;30.37;29.43;100467.42;1686673;83;21748;-74
2022/06/07 04:50:18;;;;;;;2.60;1.77;;;;;;;30.32;30.87;100470.31;1702535;83;21539;-73
2022/06/07 04:52:46;;;;;;;3.90;1.95;;;;;;;30.33;29.71;100463.70;1702000;83;21492;-75
2022/06/07 04:55:14;;;;;;;3.42;2.15;;;;;;;30.32;29.15;100470.31;1706023;82;21633;-76
2022/06/07 04:57:42;;;;;;;2.65;1.62;;;;;;;30.24;28.95;100464.20;1697357;83;21089;-76
2022/06/07 05:00:18;;;;;;;2.42;1.50;;;;;;;30.08;29.25;100471.50;1694052;83;21507;-77
2022/06/07 05:02:47;;;;;;;4.87;1.50;;;;;;;29.94;29.73;100474.09;1656496;84;21025;-75
2022/06/07 05:05:16;;;;;;;1.85;1.75;;;;;;;29.96;29.54;100471.27;1680747;84;21077;-74
2022/06/07 05:07:42;;;;;;;4.60;1.47;;;;;;;29.98;29.17;100470.95;1680925;84;21132;-75
2022/06/07 05:10:16;;;;;;;2.52;1.17;;;;;;;29.86;29.25;100472.92;1668436;84;21152;-74
2022/06/07 05:12:44;;;;;;;3.58;1.65;;;;;;;29.81;30.16;100479.34;1675453;84;21048;-75
2022/06/07 05:15:16;;;;;;;1.57;1.22;;;;;;;29.92;30.07;100482.64;1677681;84;21566;-75
2022/06/07 05:17:47;;;;;;;2.70;0.72;;;;;;;30.09;29.44;100487.41;1676928;84;21602;-74
2022/06/07 05:20:14;;;;;;;3.52;0.50;;;;;;;30.26;28.26;100482.55;1681339;84;21571;-81
2022/06/07 05:22:41;;;;;;;2.20;0.53;;;;;;;30.36;27.61;100491.11;1691907;81;21628;-79
2022/06/07 05:25:10;;;;;;;0.98;0.40;;;;;;;30.29;27.39;100484.68;1725985;81;22097;-81
2022/06/07 05:27:42;;;;;;;2.17;0.60;;;;;;;30.20;27.29;100490.70;1727498;81;21023;-78
2022/06/07 05:30:14;;;;;;;1.90;0.30;;;;;;;30.03;27.87;100488.69;1697302;83;21090;-76
2022/06/07 05:32:47;;;;;;;3.90;0.65;;;;;;;29.90;28.78;100489.02;1678165;84;21104;-81
2022/06/07 05:35:18;;;;;;;5.37;0.72;;;;;;;30.03;28.21;100490.86;1655253;84;21054;-74
2022/06/07 05:37:47;;;;;;;4.60;0.40;;;;;;;30.11;27.70;100487.11;1632281;86;21134;-80
2022/06/07 05:40:18;;;;;;;0.93;0.60;;;;;;;30.11;27.97;100490.66;1635600;86;21286;-78
2022/06/07 05:42:46;;;;;;;5.28;0.50;;;;;;;29.95;27.82;100484.77;1653173;85;21138;-76
2022/06/07 05:45:14;;;;;;;1.20;1.00;;;;;;;29.94;28.68;100483.14;1637630;85;21082;-77
2022/06/07 05:47:42;;;;;;;9.48;1.02;;;;;;;30.02;27.54;100483.73;1635690;86;21109;-79
2022/06/07 05:50:09;;;;;;;5.42;0.50;;;;;;;30.12;28.20;100479.92;1637081;86;21053;-79
2022/06/07 05:52:40;;;;;;;3.47;0.88;;;;;;;30.25;27.83;100483.67;1589169;88;21173;-77
2022/06/07 05:55:08;;;;;;;6.60;0.90;;;;;;;30.28;28.00;100483.05;1648981;85;21106;-74
2022/06/07 05:57:35;;;;;;;2.55;0.75;;;;;;;30.38;28.50;100480.60;1672126;83;21162;-77
2022/06/07 06:00:05;;;;;;;4.47;1.20;;;;;;;30.49;27.77;100475.62;1666801;83;21109;-80
2022/06/07 06:02:33;;;;;;;3.72;0.70;;;;;;;30.48;27.81;100481.70;1687755;83;21051;-77
2022/06/07 06:05:00;;;;;;;6.05;1.50;;;;;;;30.41;28.10;100482.72;1693838;83;21072;-76
2022/06/07 06:07:28;;;;;;;3.92;1.00;;;;;;;30.25;27.77;100482.30;1693957;83;21577;-77
2022/06/07 06:12:42;;;;;;;1.92;0.30;;;;;;;29.91;27.56;100481.01;1690150;83;21096;-83
2022/06/07 06:15:18;;;;;;;3.55;0.20;;;;;;;29.88;27.76;100478.91;1698837;83;21604;-79
2022/06/07 06:17:45;;;;;;;0.80;0.40;;;;;;;29.95;26.54;100475.16;1692019;83;21041;-77
2022/06/07 06:20:29;;;;;;;4.37;0.50;;;;;;;29.88;27.18;100478.91;1692290;83;21041;-82
2022/06/07 06:22:57;;;;;;;0.98;0.40;;;;;;;29.84;26.60;100471.86;1681493;83;21151;-79
2022/06/07 06:25:24;;;;;;;5.90;0.50;;;;;;;29.74;26.58;100472.11;1656879;85;21116;-76
2022/06/07 06:27:51;;;;;;;3.10;0.30;;;;;;;29.61;27.01;100469.68;1656614;85;21152;-77
2022/06/07 06:30:17;;;;;;;0.82;0.30;;;;;;;29.68;26.52;100470.02;1660822;85;21076;-79
2022/06/07 06:32:46;;;;;;;1.15;0.35;;;;;;;29.74;27.02;100468.55;1660631;85;21389;-79
2022/06/07 06:35:14;;;;;;;1.32;1.12;;;;;;;29.71;27.05;100468.60;1656532;82;21026;-76
2022/06/07 06:37:41;;;;;;;0.82;0.30;;;;;;;29.52;27.55;100467.44;1654012;85;21018;-78
2022/06/07 06:40:08;;;;;;;3.02;0.53;;;;;;;29.47;27.05;100462.06;1655692;85;21073;-78
2022/06/07 06:42:36;;;;;;;1.00;0.40;;;;;;;29.40;27.17;100464.42;1658420;85;21099;-78
2022/06/07 06:45:14;;;;;;;1.05;0.20;;;;;;;29.43;27.04;100462.44;1630976;85;21007;-79
2022/06/07 06:47:44;;;;;;;1.40;0.20;;;;;;;29.57;26.86;100456.88;1658255;85;21095;-78
2022/06/07 06:50:11;;;;;;;2.10;0.20;;;;;;;29.63;26.49;100453.69;1653800;85;21651;-78
2022/06/07 06:52:37;;;;;;;0.80;0.20;;;;;;;29.66;27.12;100450.30;1655845;85;21068;-79
2022/06/07 06:55:07;;;;;;;0.40;0.20;;;;;;;29.85;26.47;100453.42;1660851;85;21033;-78
2022/06/07 06:57:34;;;;;;;1.32;0.30;;;;;;;29.88;27.19;100448.69;1657682;85;21536;-78
2022/06/07 07:00:05;;;;;;;0.50;0.20;;;;;;;29.93;25.55;100450.47;1652498;85;21631;-78
2022/06/07 07:02:33;;;;;;;1.17;0.20;;;;;;;29.83;26.05;100443.32;1657074;85;21187;-77
2022/06/07 07:05:01;;;;;;;2.77;0.28;;;;;;;29.70;25.83;100447.20;1618915;87;21239;-76
2022/06/07 07:07:29;;;;;;;1.45;0.35;;;;;;;29.66;26.63;100436.56;1656820;85;21100;-80
2022/06/07 07:09:55;;;;;;;1.65;0.40;;;;;;;29.83;26.13;100441.95;1647122;85;21060;-79
2022/06/07 07:12:22;;;;;;;2.62;0.20;;;;;;;29.95;25.77;100443.55;1656470;85;21598;-78
2022/06/07 07:14:50;;;;;;;0.25;0.10;;;;;;;29.87;25.67;100445.11;1659471;85;21365;-78
2022/06/07 07:17:18;;;;;;;0.55;0.10;;;;;;;29.76;25.50;100442.95;1656499;85;21432;-79
2022/06/07 07:19:47;;;;;;;0.75;0.30;;;;;;;29.76;25.68;100452.56;1659835;85;21100;-76
2022/06/07 07:22:13;;;;;;;1.80;0.20;;;;;;;29.51;26.05;100444.63;1650177;82;21743;-80
2022/06/07 07:24:41;;;;;;;0.35;0.20;;;;;;;29.49;26.56;100440.59;1630030;86;21097;-78
2022/06/07 07:27:07;;;;;;;2.65;0.20;;;;;;;29.61;25.99;100440.84;1630801;86;21047;-77
2022/06/07 07:29:35;;;;;;;0.85;0.20;;;;;;;29.49;26.21;100439.22;1640142;86;22153;-75
2022/06/07 07:32:04;;;;;;;3.47;0.30;;;;;;;29.13;26.80;100438.72;1619929;86;21044;-77
2022/06/07 07:34:35;;;;;;;0.95;0.40;;;;;;;28.98;27.31;100438.48;1646133;85;21617;-81
2022/06/07 07:37:02;;;;;;;1.25;0.20;;;;;;;28.94;27.55;100441.59;1653602;85;21134;-82
2022/06/07 07:39:31;;;;;;;0.30;0.15;;;;;;;28.79;27.39;100440.01;1651764;85;21119;-80
2022/06/07 07:41:57;;;;;;;4.30;0.13;;;;;;;28.61;28.26;100447.23;1649588;85;21152;-72
2022/06/07 07:44:27;;;;;;;0.50;0.20;;;;;;;28.59;27.75;100445.94;1651086;84;21039;-81
2022/06/07 07:46:58;;;;;;;0.50;0.20;;;;;;;28.51;28.02;100441.39;1652550;85;21102;-77
2022/06/07 07:49:24;;;;;;;3.95;0.20;;;;;;;28.40;28.35;100439.17;1657084;85;21019;-82
2022/06/07 07:51:53;;;;;;;0.40;0.20;;;;;;;28.22;27.97;100442.26;1654851;85;21502;-87
2022/06/07 07:54:23;;;;;;;1.75;0.20;;;;;;;28.01;28.34;100445.42;1651119;85;21067;-76
2022/06/07 07:56:51;;;;;;;0.53;0.30;;;;;;;27.86;28.16;100443.74;1643389;84;21010;-77
2022/06/07 07:59:19;;;;;;;0.75;0.10;;;;;;;27.70;28.51;100447.86;1664849;84;21619;-79
2022/06/07 08:01:49;;;;;;;3.00;0.20;;;;;;;27.49;28.49;100444.66;1613871;88;21629;-74
2022/06/07 08:04:15;;;;;;;3.40;0.30;;;;;;;27.16;29.42;100449.53;1616950;87;21101;-79
2022/06/07 08:06:44;;;;;;;0.82;0.20;;;;;;;26.93;29.74;100448.48;1616871;87;21015;-76
2022/06/07 08:09:12;;;;;;;0.65;0.10;;;;;;;26.72;29.81;100450.68;1614535;87;22345;-74
2022/06/07 08:11:43;;;;;;;1.07;0.20;;;;;;;26.45;29.74;100450.45;1624773;85;21078;-82
2022/06/07 08:14:14;;;;;;;0.30;0.20;;;;;;;26.25;30.06;100448.78;1684916;84;21529;-81
2022/06/07 08:16:41;;;;;;;1.05;0.20;;;;;;;26.13;31.41;100445.91;1671858;84;21109;-72
2022/06/07 08:19:08;;;;;;;0.75;0.30;;;;;;;25.97;31.81;100449.34;1617239;87;21066;-74
2022/06/07 08:21:36;;;;;;;1.55;0.30;;;;;;;25.77;31.26;100454.43;1675591;84;21011;-73
2022/06/07 08:24:04;;;;;;;1.07;0.28;;;;;;;25.49;31.74;100441.59;1690786;83;21082;-75
2022/06/07 08:26:32;;;;;;;2.27;0.40;;;;;;;25.30;32.24;100449.09;1682608;83;21108;-73
2022/06/07 08:28:58;;;;;;;0.72;0.30;;;;;;;25.15;32.63;100448.62;1692283;83;21050;-76
2022/06/07 08:31:28;;;;;;;3.25;0.30;;;;;;;25.02;32.82;100445.97;1682568;83;21114;-82
2022/06/07 08:39:27;;;;;;;1.82;0.55;;;;;;;24.77;33.08;100447.47;1668702;84;21022;-85
2022/06/07 08:41:59;;;;;;;0.40;0.20;;;;;;;24.73;33.25;100444.48;1683659;84;21669;-82
2022/06/07 08:44:39;;;;;;;2.65;0.70;;;;;;;24.77;32.78;100451.03;1677005;83;21078;-76
2022/06/07 08:47:41;;;;;;;4.00;0.37;;;;;;;24.87;32.74;100448.79;1654112;85;21618;-74
2022/06/07 08:50:22;;;;;;;0.55;0.20;;;;;;;25.03;32.92;100444.88;1661187;85;21026;-81
2022/06/07 08:52:53;;;;;;;0.75;0.30;;;;;;;25.24;32.26;100440.13;1652519;85;21560;-77
2022/06/07 08:55:36;;;;;;;0.75;0.30;;;;;;;25.40;31.73;100442.18;1654681;84;21147;-77
2022/06/07 08:58:19;;;;;;;0.90;0.20;;;;;;;25.56;31.65;100437.95;1672293;84;21049;-77
2022/06/07 09:00:51;;;;;;;0.28;0.20;;;;;;;25.77;31.37;100433.15;1627534;86;21150;-76
2022/06/07 09:03:38;;;;;;;0.20;0.10;;;;;;;25.85;31.53;100433.87;1616015;87;21047;-77
2022/06/07 09:06:16;;;;;;;0.20;0.20;;;;;;;25.95;31.52;100432.42;1602013;88;21151;-78
2022/06/07 09:08:49;;;;;;;1.67;0.20;;;;;;;26.11;30.85;100424.90;1656738;85;21057;-77
2022/06/07 09:14:52;;;;;;;0.50;0.40;;;;;;;26.29;30.90;100429.34;1657547;85;21176;-76
2022/06/07 09:17:36;;;;;;;2.25;0.37;;;;;;;26.20;30.68;100424.52;1665433;84;21018;-80
2022/06/07 09:20:14;;;;;;;1.60;0.30;;;;;;;25.88;30.92;100373.24;1659096;85;21073;-72
2022/06/07 09:22:46;;;;;;;2.50;0.88;;;;;;;26.20;30.92;100417.70;1636856;87;21673;-77
2022/06/07 09:25:29;;;;;;;0.25;0.20;;;;;;;26.27;30.79;100417.89;1636968;85;21624;-75
2022/06/07 09:27:57;;;;;;;1.60;0.23;;;;;;;26.30;30.63;100414.02;1632199;86;21070;-79
2022/06/07 09:30:43;;;;;;;2.55;0.35;;;;;;;26.31;30.63;100408.00;1668802;84;21116;-75
2022/06/07 09:33:24;;;;;;;0.53;0.40;;;;;;;26.36;30.19;100412.84;1670625;83;21081;-78
2022/06/07 09:35:54;;;;;;;1.20;0.20;;;;;;;26.40;30.62;100404.32;1624593;86;21121;-82
2022/06/07 09:38:34;;;;;;;2.20;0.23;;;;;;;26.34;30.26;100401.96;1649920;85;21549;-75
2022/06/07 09:41:36;;;;;;;0.88;0.20;;;;;;;26.30;30.72;100402.29;1658327;85;21109;-75
2022/06/07 09:44:21;;;;;;;0.45;0.30;;;;;;;26.39;30.72;100410.07;1642335;85;22219;-73
2022/06/07 09:47:08;;;;;;;1.85;0.20;;;;;;;26.57;30.22;100405.75;1647685;85;21034;-79
2022/06/07 09:50:05;;;;;;;0.30;0.20;;;;;;;26.66;29.67;100403.22;1648514;85;21058;-82
2022/06/07 09:52:42;;;;;;;1.47;0.23;;;;;;;26.77;29.91;100400.04;1647654;85;21643;-75
2022/06/07 09:55:38;;;;;;;0.68;0.28;;;;;;;26.81;29.58;100403.00;1653512;85;21056;-78
2022/06/07 09:58:39;;;;;;;1.45;0.42;;;;;;;26.67;29.77;100390.59;1650255;85;21512;-76
2022/06/07 10:01:22;;;;;;;0.28;0.20;;;;;;;26.53;30.17;100386.39;1644523;84;21571;-78
2022/06/07 10:03:59;;;;;;;1.10;0.20;;;;;;;26.56;30.43;100384.98;1653157;85;21209;-74
2022/06/07 10:06:34;;;;;;;0.23;0.20;;;;;;;26.67;30.01;100385.69;1656274;85;21115;-80
2022/06/07 10:09:21;;;;;;;2.58;0.25;;;;;;;26.66;29.46;100380.78;1654668;85;21090;-80
2022/06/07 10:12:23;;;;;;;0.62;0.53;;;;;;;26.52;29.99;100387.52;1640267;85;21022;-72
2022/06/07 10:15:22;;;;;;;0.53;0.20;;;;;;;26.44;29.92;100379.15;1649585;85;21573;-75
2022/06/07 10:18:38;;;;;;;0.82;0.20;;;;;;;26.34;30.23;100377.37;1642267;85;21133;-72
2022/06/07 10:21:59;;;;;;;0.17;0.17;;;;;;;26.26;30.11;100376.63;1636746;85;21093;-78
2022/06/07 10:25:04;;;;;;;1.45;0.25;;;;;;;26.20;30.26;100371.78;1682428;84;21031;-73
2022/06/07 10:28:08;;;;;;;0.50;0.25;;;;;;;26.23;30.13;100369.84;1680285;84;21142;-73
2022/06/07 10:31:00;;;;;;;4.28;0.40;;;;;;;26.34;30.30;100367.25;1683602;84;21064;-75
2022/06/07 10:33:53;;;;;;;2.55;0.20;;;;;;;26.44;30.34;100370.39;1676278;84;21011;-77
2022/06/07 10:36:54;;;;;;;0.62;0.20;;;;;;;26.59;30.00;100362.00;1649162;85;21061;-73
2022/06/07 10:39:35;;;;;;;0.35;0.30;;;;;;;26.67;29.54;100358.36;1637451;85;21558;-84
2022/06/07 10:42:35;;;;;;;0.20;0.20;;;;;;;26.56;29.41;100358.48;1623272;87;21035;-78
2022/06/07 10:45:19;;;;;;;1.50;0.20;;;;;;;26.46;29.68;100353.70;1617865;85;21050;-75
2022/06/07 10:48:17;;;;;;;2.17;0.42;;;;;;;26.42;29.56;100364.41;1606005;87;21629;-74
2022/06/07 10:50:49;;;;;;;0.35;0.20;;;;;;;26.40;29.62;100358.42;1620366;87;21055;-77
2022/06/07 10:53:33;;;;;;;2.17;0.20;;;;;;;26.42;29.49;100356.21;1633820;86;21197;-81
2022/06/07 10:56:27;;;;;;;1.12;0.45;;;;;;;26.45;29.31;100350.70;1649025;85;21026;-81
2022/06/07 10:58:57;;;;;;;0.45;0.30;;;;;;;26.42;29.50;100346.08;1617634;87;21039;-82
2022/06/07 11:01:37;;;;;;;1.77;0.20;;;;;;;26.50;29.76;100350.64;1647903;85;21083;-74
2022/06/07 11:10:31;;;;;;;0.23;0.20;;;;;;;26.77;29.08;100337.72;1644268;85;21666;-81
2022/06/07 11:13:25;;;;;;;0.30;0.30;;;;;;;26.82;29.33;100341.72;1644420;85;21141;-73
2022/06/07 11:16:24;;;;;;;2.75;0.47;;;;;;;26.87;28.92;100336.17;1631485;86;21056;-73
2022/06/07 11:18:50;;;;;;;0.20;0.20;;;;;;;26.92;29.07;100331.20;1616395;87;22021;-72
2022/06/07 11:21:32;;;;;;;0.28;0.28;;;;;;;27.01;29.27;100321.17;1610997;87;21585;-73
2022/06/07 11:24:06;;;;;;;0.60;0.13;;;;;;;27.03;28.50;100318.98;1631222;85;21074;-71
2022/06/07 11:26:54;;;;;;;0.75;0.20;;;;;;;26.90;28.52;100315.08;1642562;85;21578;-73
2022/06/07 11:29:25;;;;;;;2.92;0.40;;;;;;;26.82;29.04;100314.38;1643482;85;21405;-79
2022/06/07 11:31:52;;;;;;;1.00;0.20;;;;;;;26.88;28.76;100315.94;1619142;87;21672;-73
2022/06/07 11:34:35;;;;;;;0.60;0.50;;;;;;;26.84;28.60;100316.81;1623745;86;21118;-75
2022/06/07 11:37:18;;;;;;;1.22;0.65;;;;;;;26.74;28.74;100312.33;1604099;87;22029;-76
2022/06/07 11:39:56;;;;;;;0.82;0.20;;;;;;;26.74;28.94;100309.59;1637891;85;21042;-72
2022/06/07 11:42:36;;;;;;;0.40;0.20;;;;;;;26.69;29.08;100278.22;1630495;86;21617;-73
2022/06/07 11:45:18;;;;;;;0.98;0.30;;;;;;;26.87;28.45;100295.72;1642969;85;21107;-72
2022/06/07 11:47:49;;;;;;;1.55;0.20;;;;;;;26.87;28.05;100291.62;1612728;87;21060;-73
2022/06/07 11:50:29;;;;;;;2.02;0.40;;;;;;;26.82;28.43;100293.86;1618830;87;21071;-72
2022/06/07 11:53:15;;;;;;;1.32;0.30;;;;;;;26.72;28.54;100296.77;1631511;87;21020;-75
2022/06/07 11:55:44;;;;;;;0.90;0.30;;;;;;;26.61;28.40;100296.91;1627989;83;21592;-80
2022/06/07 11:58:14;;;;;;;0.20;0.20;;;;;;;26.54;28.71;100293.73;1617306;87;21042;-79
2022/06/07 12:00:47;;;;;;;0.95;0.20;;;;;;;26.49;28.95;100293.80;1621792;87;21086;-81
2022/06/07 12:03:29;;;;;;;3.12;0.65;;;;;;;26.46;28.74;100288.92;1617943;87;21131;-77
2022/06/07 12:06:17;;;;;;;1.27;0.30;;;;;;;26.47;28.85;100275.53;1632048;85;21082;-74
2022/06/07 12:08:51;;;;;;;0.50;0.20;;;;;;;26.55;28.80;100283.61;1627377;86;21551;-73
2022/06/07 12:11:24;;;;;;;4.47;0.20;;;;;;;26.63;28.90;100278.05;1646005;85;21054;-76
2022/06/07 12:14:02;;;;;;;2.52;0.20;;;;;;;26.75;28.75;100279.78;1615646;87;21530;-77
2022/06/07 12:16:43;;;;;;;0.45;0.10;;;;;;;26.79;28.47;100277.52;1643651;85;21059;-78
2022/06/07 12:19:35;;;;;;;0.82;0.20;;;;;;;26.82;28.49;100267.08;1632287;86;21649;-74
2022/06/07 12:22:12;;;;;;;2.12;0.20;;;;;;;26.85;28.72;100271.41;1646647;85;21597;-76
2022/06/07 12:25:03;;;;;;;4.50;0.33;;;;;;;26.85;28.52;100265.13;1618414;87;22284;-74
2022/06/07 12:27:47;;;;;;;1.75;0.20;;;;;;;26.81;28.99;100266.28;1643853;85;21070;-75
2022/06/07 12:30:29;;;;;;;0.55;0.23;;;;;;;26.77;28.97;100259.23;1634666;86;21179;-76
2022/06/07 12:33:13;;;;;;;0.47;0.30;;;;;;;26.77;28.76;100255.69;1637747;85;21094;-75
2022/06/07 12:35:59;;;;;;;1.00;0.10;;;;;;;26.75;28.22;100260.08;1620859;87;21846;-73
2022/06/07 12:38:29;;;;;;;3.10;0.17;;;;;;;26.71;28.16;100259.06;1649562;85;21078;-83
2022/06/07 12:41:10;;;;;;;1.95;0.20;;;;;;;26.70;27.91;100253.33;1641990;85;21110;-83
2022/06/07 12:43:51;;;;;;;0.40;0.10;;;;;;;26.66;27.75;100256.97;1649167;85;21012;-83
2022/06/07 12:46:23;;;;;;;1.47;0.10;;;;;;;26.58;27.70;100255.69;1652083;85;21063;-81
2022/06/07 12:48:52;;;;;;;0.75;0.20;;;;;;;26.57;27.97;100248.02;1643335;85;21012;-83
2022/06/07 12:51:28;;;;;;;0.40;0.20;;;;;;;26.63;28.32;100243.88;1624988;87;21102;-82
2022/06/07 12:54:09;;;;;;;1.82;0.20;;;;;;;26.71;28.35;100245.39;1648585;85;21150;-81
2022/06/07 12:56:41;;;;;;;0.42;0.10;;;;;;;26.80;28.20;100236.77;1647527;85;21162;-81
2022/06/07 12:59:29;;;;;;;0.55;0.30;;;;;;;26.89;28.21;100227.86;1609069;87;21570;-79
2022/06/07 13:01:57;;;;;;;0.75;0.20;;;;;;;26.96;28.05;100230.46;1669586;84;21065;-80
2022/06/07 13:04:33;;;;;;;1.80;0.17;;;;;;;26.98;27.89;100229.60;1680096;84;21821;-81
2022/06/07 13:07:05;;;;;;;0.20;0.10;;;;;;;26.95;27.93;100226.09;1671304;84;21522;-80
2022/06/07 13:09:32;;;;;;;0.40;0.20;;;;;;;26.96;28.02;100222.82;1681757;84;21545;-81
2022/06/07 13:12:01;;;;;;;0.42;0.20;;;;;;;26.97;28.01;100217.59;1685984;84;21121;-80
2022/06/07 13:14:27;;;;;;;0.80;0.20;;;;;;;26.98;28.21;100214.56;1690622;83;21098;-81
2022/06/07 13:16:53;;;;;;;1.22;0.10;;;;;;;26.99;28.47;100217.56;1624812;87;22309;-83
2022/06/07 13:19:26;;;;;;;2.05;0.28;;;;;;;26.98;28.05;100214.56;1648794;86;21246;-77
2022/06/07 13:22:05;;;;;;;0.28;0.20;;;;;;;26.93;28.28;100207.80;1624719;87;21027;-81
2022/06/07 13:24:45;;;;;;;1.20;0.10;;;;;;;26.92;28.32;100210.87;1638045;85;21074;-79
2022/06/07 13:27:29;;;;;;;0.90;0.15;;;;;;;26.93;27.91;100212.47;1624553;87;21619;-79
2022/06/07 13:29:55;;;;;;;0.30;0.20;;;;;;;26.88;27.79;100212.55;1596885;87;21058;-80
2022/06/07 13:32:26;;;;;;;1.80;0.10;;;;;;;26.80;27.63;100212.69;1649250;85;21122;-81
2022/06/07 13:35:02;;;;;;;0.57;0.20;;;;;;;26.74;27.60;100209.23;1656330;84;21026;-80
2022/06/07 13:37:31;;;;;;;0.30;0.20;;;;;;;26.70;27.54;100207.41;1639756;86;21081;-84
2022/06/07 13:40:05;;;;;;;1.55;0.10;;;;;;;26.61;27.34;100205.91;1663039;84;21250;-80
2022/06/07 13:42:39;;;;;;;0.10;0.10;;;;;;;26.57;26.75;100212.49;1665372;84;21050;-78
2022/06/07 13:45:22;;;;;;;2.17;0.10;;;;;;;26.56;26.39;100204.59;1665682;83;21010;-80
2022/06/07 13:48:03;;;;;;;0.53;0.15;;;;;;;26.52;25.50;100203.03;1666933;84;21057;-80
2022/06/07 13:53:24;;;;;;;3.85;0.10;;;;;;;26.45;26.38;100198.50;1633081;86;21174;-81
2022/06/07 13:56:08;;;;;;;0.20;0.20;;;;;;;26.48;26.51;100201.98;1660622;85;21113;-80
2022/06/07 13:58:39;;;;;;;1.07;0.10;;;;;;;26.50;26.59;100208.52;1675756;84;21180;-77
2022/06/07 14:01:34;;;;;;;1.22;0.20;;;;;;;26.50;25.96;100201.69;1677859;84;21109;-80
2022/06/07 14:04:06;;;;;;;0.42;0.10;;;;;;;26.39;26.21;100201.03;1692451;83;21140;-75
2022/06/07 14:06:37;;;;;;;0.90;0.33;;;;;;;26.34;26.35;100205.23;1688286;83;21042;-79
2022/06/07 14:09:21;;;;;;;5.03;0.20;;;;;;;26.30;26.51;100199.55;1694500;83;21636;-80
2022/06/07 14:11:50;;;;;;;0.23;0.10;;;;;;;26.27;26.86;100197.96;1686973;83;21049;-78
2022/06/07 14:14:19;;;;;;;0.45;0.20;;;;;;;26.26;26.58;100200.42;1693986;83;21078;-80
2022/06/07 14:16:50;;;;;;;2.27;0.10;;;;;;;26.23;26.63;100199.91;1689572;83;21058;-78
2022/06/07 14:19:31;;;;;;;0.70;0.10;;;;;;;26.24;26.99;100196.64;1649072;85;21543;-76
2022/06/07 14:22:03;;;;;;;1.20;0.25;;;;;;;26.24;26.93;100189.81;1664317;84;21236;-77
2022/06/07 14:24:29;;;;;;;1.75;0.37;;;;;;;26.23;27.45;100186.81;1663693;86;21107;-80
2022/06/07 14:26:55;;;;;;;3.90;0.60;;;;;;;26.22;27.63;100181.91;1641259;85;21070;-80
2022/06/07 14:29:22;;;;;;;3.22;0.20;;;;;;;26.21;28.18;100188.47;1664305;84;21073;-78
2022/06/07 14:31:49;;;;;;;0.62;0.20;;;;;;;26.25;28.29;100182.42;1641563;86;21549;-80
2022/06/07 14:34:23;;;;;;;0.95;0.30;;;;;;;26.26;28.41;100179.40;1643531;85;21034;-77
2022/06/07 14:36:50;;;;;;;1.20;0.42;;;;;;;26.30;28.36;100173.59;1675075;84;21097;-80
2022/06/07 14:39:21;;;;;;;1.00;0.20;;;;;;;26.37;28.42;100170.47;1669148;84;21062;-77
2022/06/07 14:41:48;;;;;;;2.17;0.40;;;;;;;26.40;28.46;100167.15;1678944;83;21077;-79
2022/06/07 14:44:16;;;;;;;3.67;0.37;;;;;;;26.41;28.36;100166.85;1642866;86;21111;-75
2022/06/07 14:46:44;;;;;;;0.28;0.20;;;;;;;26.43;28.23;100161.09;1662475;84;21162;-79
2022/06/07 14:49:18;;;;;;;1.07;0.40;;;;;;;26.47;28.16;100162.12;1679260;84;21022;-77
2022/06/07 14:51:45;;;;;;;1.50;0.30;;;;;;;26.54;28.14;100161.71;1693251;83;21039;-77
2022/06/07 14:54:23;;;;;;;1.85;0.20;;;;;;;26.59;28.02;100156.16;1696613;83;21161;-79
2022/06/07 14:56:50;;;;;;;0.28;0.20;;;;;;;26.63;27.98;100152.31;1692664;83;21022;-78
2022/06/07 14:59:19;;;;;;;1.90;0.25;;;;;;;26.66;27.90;100151.72;1684729;83;22252;-76
2022/06/07 15:01:59;;;;;;;0.72;0.17;;;;;;;26.63;28.06;100159.95;1684611;83;22199;-78
2022/06/07 15:04:49;;;;;;;0.93;0.30;;;;;;;26.59;28.14;100148.80;1684095;83;21092;-78
2022/06/07 15:07:26;;;;;;;1.22;0.40;;;;;;;26.58;28.73;100149.09;1690634;83;21069;-72
2022/06/07 15:09:54;;;;;;;0.75;0.20;;;;;;;26.57;28.62;100144.72;1681953;83;21284;-76
2022/06/07 15:12:22;;;;;;;1.50;0.30;;;;;;;26.56;27.92;100145.29;1642972;85;21046;-74
2022/06/07 15:14:49;;;;;;;3.50;0.20;;;;;;;26.52;27.86;100149.73;1625381;86;21478;-76
2022/06/07 15:17:20;;;;;;;0.55;0.20;;;;;;;26.47;28.17;100145.72;1677039;84;21019;-76
2022/06/07 15:19:48;;;;;;;0.72;0.30;;;;;;;26.45;28.17;100139.74;1658758;84;21114;-75